Time;durP1;ratioP1;P1;durP2;ratioP2;P2;SDS_P1;SDS_P2;PMS_P1;PMS_P2;Temp;Humidity;BMP_temperature;BMP_pressure;BME280_temperature;BME280_humidity;BME280_pressure;Samples;Min_cycle;Max_cycle;Signal;HPM_P1;HPM_P2
2022/08/25 00:00:43;;;;;;;13.35;2.47;;;;;;;14.00;69.06;100773.03;5002218;28;20053;-82
2022/08/25 00:03:10;;;;;;;15.73;3.10;;;;;;;14.03;69.77;100775.38;4955929;28;20066;-83
2022/08/25 00:05:36;;;;;;;13.43;2.80;;;;;;;14.02;70.00;100769.25;5002992;28;20084;-82
2022/08/25 00:08:04;;;;;;;13.93;2.53;;;;;;;14.01;70.07;100772.88;5000386;28;20046;-82
2022/08/25 00:10:33;;;;;;;17.70;2.20;;;;;;;13.96;70.51;100767.22;4985050;28;20030;-82
2022/08/25 00:13:02;;;;;;;17.10;2.85;;;;;;;13.97;70.47;100778.66;4995840;28;20566;-84
2022/08/25 00:15:30;;;;;;;17.85;3.20;;;;;;;13.92;70.65;100780.97;4982330;28;20034;-81
2022/08/25 00:17:56;;;;;;;23.52;2.95;;;;;;;13.92;71.16;100771.16;5005629;28;20045;-82
2022/08/25 00:20:22;;;;;;;16.20;2.78;;;;;;;13.86;71.12;100770.00;4937552;28;20121;-82
2022/08/25 00:22:48;;;;;;;10.93;2.95;;;;;;;13.87;71.32;100776.97;4981016;28;22195;-81
2022/08/25 00:25:14;;;;;;;14.95;2.60;;;;;;;13.84;71.42;100777.28;4986415;28;20048;-81
2022/08/25 00:27:42;;;;;;;12.68;2.40;;;;;;;13.83;71.81;100777.44;4987209;28;20038;-83
2022/08/25 00:30:09;;;;;;;14.20;2.50;;;;;;;13.83;71.61;100772.97;4970319;28;20042;-82
2022/08/25 00:32:35;;;;;;;10.48;2.08;;;;;;;13.70;71.73;100768.06;4992481;28;20081;-82
2022/08/25 00:35:03;;;;;;;14.32;2.75;;;;;;;13.58;71.85;100769.31;5002798;28;20038;-83
2022/08/25 00:37:29;;;;;;;17.20;2.30;;;;;;;13.49;71.83;100781.69;4969559;28;20089;-81
2022/08/25 00:39:55;;;;;;;16.80;3.40;;;;;;;13.32;72.57;100786.88;4988235;28;20038;-81
2022/08/25 00:42:23;;;;;;;20.85;2.45;;;;;;;13.23;72.74;100782.50;4990798;28;20037;-83
2022/08/25 00:44:49;;;;;;;13.27;2.40;;;;;;;13.17;73.01;100773.31;4994835;28;20045;-83
2022/08/25 00:47:15;;;;;;;9.63;1.92;;;;;;;13.23;73.09;100778.03;4972448;28;20038;-82
2022/08/25 00:49:46;;;;;;;9.45;2.30;;;;;;;13.33;72.71;100785.88;4983322;28;20116;-82
2022/08/25 00:52:17;;;;;;;12.52;2.47;;;;;;;13.30;72.61;100788.03;4986049;28;20473;-83
2022/08/25 00:54:57;;;;;;;13.73;2.95;;;;;;;13.15;72.53;100788.56;4984298;28;20045;-83
2022/08/25 00:57:28;;;;;;;8.73;1.77;;;;;;;13.06;72.53;100792.94;4969438;28;20031;-82
2022/08/25 00:59:54;;;;;;;7.85;1.63;;;;;;;12.93;72.40;100796.00;5017951;28;20510;-81
2022/08/25 01:02:20;;;;;;;11.60;2.08;;;;;;;12.75;72.47;100796.81;4966364;28;20084;-82
2022/08/25 01:04:46;;;;;;;9.38;1.85;;;;;;;12.63;72.57;100798.00;4993198;28;20029;-82
2022/08/25 01:07:14;;;;;;;6.70;1.90;;;;;;;12.59;72.89;100794.81;4972041;28;20144;-82
2022/08/25 01:09:41;;;;;;;7.32;1.58;;;;;;;12.63;72.97;100798.84;5004392;28;20056;-82
2022/08/25 01:12:07;;;;;;;7.90;1.88;;;;;;;12.67;72.49;100791.44;4995193;28;20049;-81
2022/08/25 01:14:35;;;;;;;11.95;2.55;;;;;;;12.73;72.50;100795.28;4975742;28;20077;-82
2022/08/25 01:17:01;;;;;;;9.95;2.30;;;;;;;12.73;72.25;100798.78;5000609;28;20031;-81
2022/08/25 01:19:28;;;;;;;9.23;2.00;;;;;;;12.73;72.26;100797.94;4975087;28;20042;-82
2022/08/25 01:21:54;;;;;;;10.23;2.42;;;;;;;12.76;72.65;100795.00;4994883;28;20046;-83
2022/08/25 01:24:39;;;;;;;14.07;1.92;;;;;;;12.81;72.29;100800.69;4999055;28;20049;-82
2022/08/25 01:27:06;;;;;;;10.00;1.77;;;;;;;12.79;72.39;100794.69;4987118;28;20038;-82
2022/08/25 01:29:32;;;;;;;5.57;1.40;;;;;;;12.73;71.96;100801.44;5012670;28;20697;-82
2022/08/25 01:32:02;;;;;;;10.45;1.70;;;;;;;12.72;72.28;100805.09;4950587;28;20103;-82
2022/08/25 01:34:32;;;;;;;8.57;1.98;;;;;;;12.65;72.23;100806.66;5004826;28;20447;-82
2022/08/25 01:36:58;;;;;;;11.73;1.63;;;;;;;12.56;72.23;100803.09;5017962;28;20464;-81
2022/08/25 01:39:27;;;;;;;7.93;2.17;;;;;;;12.47;71.90;100812.75;4991695;28;20033;-82
2022/08/25 01:42:03;;;;;;;9.38;1.73;;;;;;;12.34;72.14;100815.72;4999557;28;20041;-81
2022/08/25 01:44:29;;;;;;;;;;;;;;;12.11;72.69;100816.13;4986559;28;20033;-81
2022/08/25 01:46:55;;;;;;;10.80;1.45;;;;;;;12.04;72.80;100820.28;5014657;28;19913;-80
2022/08/25 01:49:21;;;;;;;8.35;1.52;;;;;;;12.04;72.65;100814.97;5009625;28;20061;-82
2022/08/25 01:51:52;;;;;;;6.18;1.52;;;;;;;12.01;72.69;100812.63;4978545;28;20057;-81
2022/08/25 01:54:18;;;;;;;8.10;1.75;;;;;;;12.00;72.40;100822.41;4982502;28;20034;-81
2022/08/25 01:56:44;;;;;;;12.07;2.28;;;;;;;12.04;72.25;100815.81;4995043;28;20038;-81
2022/08/25 01:59:10;;;;;;;8.48;2.13;;;;;;;12.07;72.36;100814.69;4996277;28;20520;-81
2022/08/25 02:01:36;;;;;;;4.95;1.20;;;;;;;12.09;72.20;100827.84;4995613;28;20402;-81
2022/08/25 02:04:03;;;;;;;7.00;1.63;;;;;;;12.08;72.34;100824.38;5010100;28;20045;-81
2022/08/25 02:06:31;;;;;;;7.93;1.60;;;;;;;12.08;72.39;100823.53;4998993;28;20169;-81
2022/08/25 02:09:01;;;;;;;8.68;1.80;;;;;;;12.07;72.29;100829.78;5025360;28;20057;-81
2022/08/25 02:11:27;;;;;;;9.55;1.70;;;;;;;12.04;72.50;100828.22;5005810;28;20031;-81
2022/08/25 02:13:53;;;;;;;11.73;1.90;;;;;;;12.07;72.71;100827.13;4995757;28;20046;-81
2022/08/25 02:16:29;;;;;;;10.90;2.33;;;;;;;12.13;73.10;100830.06;4988222;28;20084;-81
2022/08/25 02:18:57;;;;;;;9.88;2.22;;;;;;;12.16;72.91;100842.19;4992588;28;20049;-82
2022/08/25 02:21:24;;;;;;;11.05;2.05;;;;;;;12.16;73.06;100834.25;5007464;28;20489;-81
2022/08/25 02:23:50;;;;;;;11.48;2.28;;;;;;;12.13;73.43;100838.03;5000855;28;20162;-81
2022/08/25 02:26:17;;;;;;;12.13;2.25;;;;;;;12.04;73.58;100837.03;4974518;28;20108;-81
2022/08/25 02:28:45;;;;;;;18.48;2.70;;;;;;;12.00;73.83;100838.31;4992349;28;20674;-80
2022/08/25 02:31:12;;;;;;;12.23;1.67;;;;;;;11.98;74.00;100839.41;4999568;28;20056;-81
2022/08/25 02:33:38;;;;;;;15.75;2.90;;;;;;;12.00;74.07;100840.94;5017109;28;20843;-82
2022/08/25 02:36:04;;;;;;;13.98;2.20;;;;;;;12.06;73.98;100842.19;5005694;28;20037;-82
2022/08/25 02:38:30;;;;;;;12.88;2.03;;;;;;;12.06;74.31;100838.69;5008729;28;20509;-84
2022/08/25 02:40:57;;;;;;;9.95;1.75;;;;;;;12.07;74.49;100843.84;4997748;28;20056;-82
2022/08/25 02:43:24;;;;;;;14.57;2.60;;;;;;;12.06;74.64;100838.69;5013149;28;20044;-82
2022/08/25 02:45:52;;;;;;;11.43;2.15;;;;;;;12.07;75.14;100840.38;4964929;28;20089;-83
2022/08/25 02:48:18;;;;;;;14.50;2.25;;;;;;;12.06;75.21;100843.97;5000841;28;20109;-81
2022/08/25 02:50:50;;;;;;;9.52;2.40;;;;;;;12.00;75.42;100846.25;5000728;28;20064;-81
2022/08/25 02:53:17;;;;;;;11.77;2.20;;;;;;;12.00;75.47;100851.56;4978490;28;20029;-82
2022/08/25 02:55:42;;;;;;;12.30;2.35;;;;;;;11.95;75.72;100845.84;4971208;28;20125;-81
2022/08/25 02:58:09;;;;;;;8.57;2.50;;;;;;;11.95;75.80;100847.66;5004160;28;20128;-81
2022/08/25 03:00:35;;;;;;;10.98;2.58;;;;;;;11.98;75.75;100850.84;5000129;28;20124;-81
2022/08/25 03:03:02;;;;;;;14.00;2.38;;;;;;;12.01;75.68;100842.63;5011546;28;20034;-81
2022/08/25 03:05:28;;;;;;;9.68;1.88;;;;;;;12.09;75.61;100841.09;4979412;28;20046;-82
2022/08/25 03:07:55;;;;;;;10.73;2.08;;;;;;;12.10;75.18;100840.13;4985442;28;20057;-82
2022/08/25 03:10:20;;;;;;;17.02;2.72;;;;;;;12.09;74.80;100849.06;5004943;28;20080;-81
2022/08/25 03:12:46;;;;;;;9.10;1.70;;;;;;;12.07;75.10;100843.84;4985889;28;20493;-81
2022/08/25 03:15:15;;;;;;;4.88;1.48;;;;;;;12.04;74.72;100847.63;4998687;28;20069;-80
2022/08/25 03:17:42;;;;;;;4.55;1.30;;;;;;;11.95;74.41;100845.84;5004409;28;20045;-82
2022/08/25 03:20:08;;;;;;;3.75;0.80;;;;;;;11.78;74.70;100844.78;4964927;28;20076;-81
2022/08/25 03:22:35;;;;;;;2.47;0.70;;;;;;;11.65;74.86;100843.25;4991634;28;20061;-81
2022/08/25 03:28:06;;;;;;;3.78;0.80;;;;;;;11.68;74.73;100842.13;5021789;28;20135;-81
2022/08/25 03:30:32;;;;;;;7.95;0.90;;;;;;;11.64;74.13;100841.56;4984529;28;20398;-81
2022/08/25 03:32:57;;;;;;;4.80;1.35;;;;;;;11.61;74.16;100841.84;4998688;28;20069;-81
2022/08/25 03:35:23;;;;;;;4.10;1.08;;;;;;;11.61;73.97;100841.03;4973610;28;20030;-81
2022/08/25 03:37:50;;;;;;;6.53;1.70;;;;;;;11.61;73.70;100841.84;4975209;28;20393;-80
2022/08/25 03:40:19;;;;;;;7.47;1.15;;;;;;;11.56;73.92;100841.47;4979845;28;21767;-80
2022/08/25 03:42:45;;;;;;;2.90;0.75;;;;;;;11.48;73.95;100834.19;4963795;28;20033;-81
2022/08/25 03:45:13;;;;;;;5.95;0.80;;;;;;;11.47;74.13;100829.88;4991554;28;20033;-80
2022/08/25 03:47:39;;;;;;;2.60;0.80;;;;;;;11.48;73.87;100841.31;4997029;28;20045;-81
2022/08/25 03:50:08;;;;;;;4.28;0.90;;;;;;;11.42;73.67;100832.13;4957728;28;20061;-81
2022/08/25 03:52:35;;;;;;;5.45;0.90;;;;;;;11.26;73.39;100836.16;5003375;28;20033;-81
2022/08/25 03:55:04;;;;;;;7.32;0.73;;;;;;;11.19;73.71;100839.50;4994215;28;20049;-81
2022/08/25 03:57:30;;;;;;;18.25;1.02;;;;;;;11.20;73.84;100841.16;5001873;28;20041;-81
2022/08/25 03:59:56;;;;;;;2.97;0.60;;;;;;;11.21;73.82;100848.16;4999828;28;20039;-80
2022/08/25 04:02:22;;;;;;;7.07;1.17;;;;;;;11.24;73.98;100845.22;5018868;28;20048;-80
2022/08/25 04:04:47;;;;;;;6.43;1.35;;;;;;;11.32;74.56;100845.38;5006281;28;20030;-81
2022/08/25 04:07:13;;;;;;;4.50;1.17;;;;;;;11.33;74.50;100843.53;4983464;28;20524;-82
2022/08/25 04:09:39;;;;;;;7.30;1.70;;;;;;;11.33;74.76;100836.44;4996231;28;20037;-81
2022/08/25 04:12:05;;;;;;;7.55;1.48;;;;;;;11.40;75.29;100834.09;4996262;28;20488;-81
2022/08/25 04:14:31;;;;;;;7.82;2.10;;;;;;;11.51;75.77;100833.94;4970374;28;20069;-81
2022/08/25 04:16:57;;;;;;;8.32;1.60;;;;;;;11.62;76.11;100825.00;5004008;28;20083;-80
2022/08/25 04:19:22;;;;;;;5.43;1.10;;;;;;;11.60;75.36;100824.31;4979675;28;20042;-80
2022/08/25 04:21:48;;;;;;;7.78;1.27;;;;;;;11.58;75.60;100828.09;4972822;28;20089;-81
2022/08/25 04:24:14;;;;;;;9.43;1.60;;;;;;;11.61;75.82;100823.31;4947443;28;20044;-82
2022/08/25 04:26:47;;;;;;;3.78;1.15;;;;;;;11.67;75.76;100816.63;5012459;28;20033;-80
2022/08/25 04:29:16;;;;;;;4.20;0.90;;;;;;;11.64;75.36;100825.69;4987676;28;20040;-80
2022/08/25 04:31:45;;;;;;;5.68;1.00;;;;;;;11.51;75.59;100823.34;5004654;28;20109;-81
2022/08/25 04:34:12;;;;;;;8.45;1.98;;;;;;;11.48;75.89;100820.16;4998875;28;20027;-81
2022/08/25 04:36:39;;;;;;;9.50;1.63;;;;;;;11.51;76.15;100833.09;5009105;28;20114;-81
2022/08/25 04:39:05;;;;;;;4.72;1.10;;;;;;;11.48;76.20;100825.44;4994455;28;20034;-81
2022/08/25 04:41:31;;;;;;;11.25;1.70;;;;;;;11.49;75.94;100830.59;4992275;28;20524;-82
2022/08/25 04:43:59;;;;;;;7.00;2.05;;;;;;;11.54;75.67;100827.53;4991626;28;20026;-82
2022/08/25 04:46:28;;;;;;;8.90;1.73;;;;;;;11.58;75.84;100830.72;5005300;28;20036;-81
2022/08/25 04:48:55;;;;;;;7.25;1.95;;;;;;;11.56;76.41;100825.56;4995183;28;20052;-80
2022/08/25 04:51:26;;;;;;;8.45;1.70;;;;;;;11.53;76.00;100826.69;4982274;28;20035;-81
2022/08/25 04:53:54;;;;;;;10.40;1.45;;;;;;;11.52;76.38;100818.88;4993846;28;20392;-80
2022/08/25 04:56:25;;;;;;;8.77;1.50;;;;;;;11.53;76.40;100816.09;4993864;28;21236;-80
2022/08/25 04:58:53;;;;;;;9.43;1.80;;;;;;;11.50;76.28;100819.03;4983784;28;20106;-80
2022/08/25 05:01:21;;;;;;;5.50;1.40;;;;;;;11.40;76.45;100812.91;4994421;28;20038;-81
2022/08/25 05:03:52;;;;;;;4.88;1.50;;;;;;;11.35;76.32;100813.34;4985429;28;20072;-81
2022/08/25 05:06:18;;;;;;;4.53;1.35;;;;;;;11.33;76.19;100819.72;4996513;28;20030;-81
2022/08/25 05:08:44;;;;;;;9.50;1.65;;;;;;;11.30;76.13;100818.19;5006942;28;20385;-81
2022/08/25 05:11:13;;;;;;;8.93;1.40;;;;;;;11.26;76.11;100822.94;4995533;28;20037;-81
2022/08/25 05:13:40;;;;;;;10.43;1.33;;;;;;;11.21;76.26;100824.34;4982664;28;20434;-80
2022/08/25 05:16:06;;;;;;;6.13;1.13;;;;;;;11.09;76.27;100815.69;4989115;28;20149;-81
2022/08/25 05:18:33;;;;;;;12.18;1.65;;;;;;;11.12;76.27;100818.06;4983054;28;20052;-80
2022/08/25 05:21:09;;;;;;;8.85;1.52;;;;;;;11.18;75.94;100824.63;5001366;28;20044;-82
2022/08/25 05:23:36;;;;;;;8.15;1.50;;;;;;;11.19;76.13;100829.78;5020383;28;20064;-81
2022/08/25 05:26:08;;;;;;;3.30;0.60;;;;;;;11.21;75.71;100819.88;4986218;28;20040;-81
2022/08/25 05:28:33;;;;;;;6.18;1.05;;;;;;;11.14;75.84;100822.25;4979204;28;20056;-81
2022/08/25 05:31:01;;;;;;;7.07;1.88;;;;;;;11.08;76.26;100824.59;4972048;28;20500;-81
2022/08/25 05:33:28;;;;;;;5.50;1.40;;;;;;;11.08;76.35;100825.44;5004810;28;20092;-81
2022/08/25 05:35:54;;;;;;;6.82;1.52;;;;;;;11.07;76.65;100829.06;4972953;28;20042;-81
2022/08/25 05:38:20;;;;;;;6.93;1.27;;;;;;;11.02;76.69;100828.66;5001586;28;20046;-81
2022/08/25 05:40:46;;;;;;;8.07;1.40;;;;;;;10.97;76.88;100837.00;5008867;28;20038;-81
2022/08/25 05:43:13;;;;;;;4.47;1.20;;;;;;;10.95;77.15;100828.34;4981527;28;20033;-81
2022/08/25 05:45:40;;;;;;;12.07;1.50;;;;;;;10.85;76.92;100832.78;4980898;28;20048;-80
2022/08/25 05:48:05;;;;;;;4.97;1.40;;;;;;;10.75;76.96;100833.59;4984304;28;20037;-81
2022/08/25 05:50:31;;;;;;;4.78;1.20;;;;;;;10.78;77.19;100833.31;4968473;28;20095;-81
2022/08/25 05:52:57;;;;;;;6.00;1.00;;;;;;;10.83;77.11;100835.56;5008872;28;20042;-81
2022/08/25 05:55:23;;;;;;;2.40;0.90;;;;;;;10.77;76.69;100844.88;4993229;28;20044;-80
2022/08/25 05:57:49;;;;;;;3.20;0.80;;;;;;;10.76;76.83;100837.09;4997503;28;20092;-80
2022/08/25 06:00:16;;;;;;;13.80;0.82;;;;;;;10.72;76.77;100838.34;4985572;28;20030;-80
2022/08/25 06:02:47;;;;;;;6.40;0.85;;;;;;;10.69;76.98;100842.06;5022245;28;20029;-81
2022/08/25 06:05:16;;;;;;;4.20;0.93;;;;;;;10.68;77.00;100840.41;4990892;28;20539;-80
2022/08/25 06:07:43;;;;;;;2.22;0.80;;;;;;;10.67;76.94;100849.31;5008234;28;20041;-81
2022/08/25 06:10:10;;;;;;;6.38;1.05;;;;;;;10.71;77.04;100849.88;5001524;28;20165;-81
2022/08/25 06:12:37;;;;;;;5.25;1.25;;;;;;;10.76;77.40;100845.88;4993752;28;20064;-81
2022/08/25 06:15:04;;;;;;;6.97;1.73;;;;;;;10.84;77.05;100849.63;5007872;28;20041;-81
2022/08/25 06:17:30;;;;;;;5.10;1.15;;;;;;;10.90;77.39;100854.38;4993526;28;20053;-81
2022/08/25 06:19:56;;;;;;;5.28;1.17;;;;;;;10.89;77.36;100842.13;4995151;28;20041;-80
2022/08/25 06:22:24;;;;;;;4.45;1.20;;;;;;;10.95;77.66;100854.81;4996997;28;20033;-79
2022/08/25 06:24:50;;;;;;;3.53;0.93;;;;;;;11.01;77.70;100853.41;4990916;28;20461;-81
2022/08/25 06:27:17;;;;;;;3.30;1.17;;;;;;;11.08;77.31;100859.84;4977922;28;20046;-80
2022/08/25 06:29:43;;;;;;;4.07;1.20;;;;;;;11.16;77.21;100856.50;4985928;28;20049;-81
2022/08/25 06:32:09;;;;;;;4.22;1.40;;;;;;;11.15;77.45;100863.59;4973233;28;20038;-81
2022/08/25 06:34:35;;;;;;;6.10;1.80;;;;;;;11.22;77.74;100861.25;4979391;28;20074;-81
2022/08/25 06:37:01;;;;;;;6.88;1.50;;;;;;;11.31;77.99;100858.75;5000205;28;20045;-80
2022/08/25 06:39:27;;;;;;;9.93;1.58;;;;;;;11.40;77.55;100855.25;4982497;28;20018;-82
2022/08/25 06:41:55;;;;;;;4.78;1.50;;;;;;;11.47;77.70;100858.16;4985423;28;20559;-82
2022/08/25 06:44:26;;;;;;;7.30;1.60;;;;;;;11.48;78.08;100855.38;5019429;28;20076;-81
2022/08/25 06:46:52;;;;;;;6.85;1.38;;;;;;;11.57;78.57;100863.47;5003884;28;20037;-81
2022/08/25 06:49:19;;;;;;;4.45;1.65;;;;;;;11.61;78.35;100862.22;4999984;28;20022;-82
2022/08/25 06:51:44;;;;;;;8.90;1.65;;;;;;;11.64;78.79;100862.75;4990253;28;20068;-81
2022/08/25 06:54:11;;;;;;;7.40;1.67;;;;;;;11.70;79.09;100869.31;4988597;28;20069;-81
2022/08/25 06:56:39;;;;;;;7.45;2.05;;;;;;;11.75;79.25;100853.81;4985681;28;20488;-81
2022/08/25 06:59:07;;;;;;;4.85;1.50;;;;;;;11.78;79.51;100858.81;4990371;28;20562;-81
2022/08/25 07:01:33;;;;;;;13.57;2.10;;;;;;;11.84;79.66;100862.75;4991689;28;20491;-81
2022/08/25 07:04:01;;;;;;;13.55;2.38;;;;;;;11.93;80.02;100860.22;5003188;28;20495;-81
2022/08/25 07:06:29;;;;;;;7.63;1.75;;;;;;;11.98;80.19;100864.09;5003430;28;20172;-79
2022/08/25 07:08:55;;;;;;;6.35;1.77;;;;;;;12.06;80.49;100863.38;5001657;28;20033;-82
2022/08/25 07:11:21;;;;;;;10.23;2.58;;;;;;;12.12;80.69;100860.19;4983508;28;20555;-80
2022/08/25 07:13:48;;;;;;;8.52;1.83;;;;;;;12.23;80.64;100868.94;5012917;28;20033;-81
2022/08/25 07:16:14;;;;;;;5.63;1.40;;;;;;;12.36;80.70;100871.28;5002411;28;20037;-81
2022/08/25 07:18:40;;;;;;;6.90;1.30;;;;;;;12.49;80.97;100873.56;4979837;28;20049;-81
2022/08/25 07:21:06;;;;;;;5.57;1.42;;;;;;;12.66;81.28;100871.97;4966441;28;20053;-81
2022/08/25 07:23:32;;;;;;;10.48;1.85;;;;;;;12.95;81.79;100881.56;4979715;28;20037;-80
2022/08/25 07:26:14;;;;;;;6.95;1.55;;;;;;;13.28;81.90;100881.09;5003249;28;20144;-80
2022/08/25 07:28:41;;;;;;;12.25;1.88;;;;;;;13.70;81.80;100878.78;4924622;28;20115;-80
2022/08/25 07:31:06;;;;;;;9.90;1.80;;;;;;;14.04;81.32;100883.38;4987284;28;20037;-81
2022/08/25 07:33:32;;;;;;;12.60;1.80;;;;;;;14.33;80.59;100878.72;5020348;28;20034;-81
2022/08/25 07:35:58;;;;;;;7.13;1.95;;;;;;;14.61;79.86;100879.34;4986080;28;20042;-81
2022/08/25 07:38:24;;;;;;;9.20;1.77;;;;;;;14.86;79.27;100876.78;4966230;28;20567;-80
2022/08/25 07:40:53;;;;;;;6.25;1.80;;;;;;;15.02;78.26;100880.47;4996091;28;20041;-80
2022/08/25 07:43:22;;;;;;;10.55;1.92;;;;;;;15.08;77.84;100877.16;4965399;28;20606;-81
2022/08/25 07:45:48;;;;;;;8.95;2.42;;;;;;;15.09;77.66;100876.19;4969683;28;20041;-80
2022/08/25 07:48:15;;;;;;;7.60;1.83;;;;;;;15.17;77.22;100879.84;5011767;28;20026;-80
2022/08/25 07:50:44;;;;;;;9.27;2.20;;;;;;;15.21;76.82;100876.69;4999304;28;20037;-80
2022/08/25 07:53:11;;;;;;;7.68;1.80;;;;;;;15.22;76.63;100877.53;5001493;28;20033;-80
2022/08/25 07:55:37;;;;;;;8.95;1.67;;;;;;;15.23;76.55;100881.84;5016531;28;20039;-79
2022/08/25 07:58:06;;;;;;;12.48;2.90;;;;;;;15.23;76.36;100889.81;5015152;28;20034;-80
2022/08/25 08:00:35;;;;;;;7.80;2.00;;;;;;;15.20;76.45;100892.81;4986530;28;20085;-80
2022/08/25 08:03:04;;;;;;;16.13;1.80;;;;;;;15.11;76.65;100894.66;5002696;28;20042;-79
2022/08/25 08:05:30;;;;;;;11.43;1.98;;;;;;;15.06;77.02;100887.16;4989207;28;20100;-81
2022/08/25 08:07:56;;;;;;;8.13;1.88;;;;;;;15.06;77.13;100894.28;4957287;28;20075;-80
2022/08/25 08:10:24;;;;;;;13.02;2.58;;;;;;;15.07;77.41;100898.63;5011877;28;20049;-80
2022/08/25 08:12:50;;;;;;;10.70;2.00;;;;;;;15.08;77.38;100898.44;4970682;28;20148;-81
2022/08/25 08:15:16;;;;;;;9.55;1.92;;;;;;;15.03;77.49;100903.44;4968331;28;20118;-82
2022/08/25 08:17:42;;;;;;;13.43;2.30;;;;;;;14.99;77.73;100899.44;5002588;28;20038;-81
2022/08/25 08:20:09;;;;;;;12.02;2.05;;;;;;;15.02;77.68;100898.28;4949148;28;20080;-81
2022/08/25 08:22:37;;;;;;;13.57;2.33;;;;;;;14.99;77.74;100896.75;4969170;28;20038;-80
2022/08/25 08:25:04;;;;;;;8.82;1.58;;;;;;;15.02;77.82;100900.94;4985671;28;20088;-80
2022/08/25 08:27:30;;;;;;;14.93;2.00;;;;;;;15.06;77.79;100900.47;4987802;28;20065;-80
2022/08/25 08:29:55;;;;;;;12.80;2.50;;;;;;;15.14;77.78;100904.97;4959646;28;20065;-81
2022/08/25 08:32:21;;;;;;;14.38;2.75;;;;;;;15.22;77.53;100905.00;5022430;28;20103;-81
2022/08/25 08:34:47;;;;;;;20.05;2.30;;;;;;;15.31;77.38;100907.66;4980637;28;20030;-81
2022/08/25 08:37:14;;;;;;;14.82;2.53;;;;;;;15.36;77.36;100908.84;5000779;28;20107;-81
2022/08/25 08:39:41;;;;;;;12.48;2.45;;;;;;;15.43;77.20;100913.50;5003228;28;20481;-82
2022/08/25 08:42:25;;;;;;;14.00;2.08;;;;;;;15.52;76.95;100912.50;4981510;28;20051;-82
2022/08/25 08:45:23;;;;;;;10.50;1.80;;;;;;;15.53;76.89;100914.16;5005742;28;20073;-81
2022/08/25 08:48:24;;;;;;;14.30;2.63;;;;;;;15.57;76.62;100920.00;4968881;28;20045;-82
2022/08/25 08:51:19;;;;;;;10.43;2.55;;;;;;;15.68;76.47;100918.84;5015887;28;20034;-81
2022/08/25 08:54:10;;;;;;;12.18;2.47;;;;;;;15.78;76.05;100916.00;5004668;28;20092;-81
2022/08/25 08:56:49;;;;;;;13.73;2.78;;;;;;;15.90;75.85;100916.50;4986520;28;20544;-81
2022/08/25 08:59:20;;;;;;;13.43;2.45;;;;;;;15.97;75.70;100920.16;5017991;28;20081;-80
2022/08/25 09:01:48;;;;;;;10.77;2.65;;;;;;;15.98;75.53;100922.69;4990553;28;20691;-81
2022/08/25 09:04:21;;;;;;;10.85;1.90;;;;;;;16.05;75.28;100924.69;4999876;28;20441;-82
2022/08/25 09:06:49;;;;;;;14.32;2.72;;;;;;;16.05;74.97;100917.53;5007477;28;20050;-83
2022/08/25 09:09:28;;;;;;;16.27;2.22;;;;;;;16.07;74.44;100912.84;5012981;28;20044;-80
2022/08/25 09:12:09;;;;;;;15.00;2.85;;;;;;;16.09;74.46;100910.84;5016695;28;20038;-82
2022/08/25 09:14:35;;;;;;;12.13;2.17;;;;;;;16.12;74.47;100912.31;4994878;28;20773;-82
2022/08/25 09:17:12;;;;;;;18.30;2.80;;;;;;;16.15;74.45;100913.84;5003008;28;20067;-81
2022/08/25 09:20:37;;;;;;;16.02;2.95;;;;;;;16.13;73.60;100919.34;4998944;28;20575;-81
2022/08/25 09:23:12;;;;;;;14.23;2.58;;;;;;;16.20;73.82;100922.13;4954794;28;20117;-81
2022/08/25 09:25:59;;;;;;;14.57;2.20;;;;;;;16.22;73.12;100921.00;4934435;29;20592;-84
2022/08/25 09:28:25;;;;;;;17.95;2.20;;;;;;;16.21;72.85;100918.50;4973721;28;20116;-85
2022/08/25 09:31:10;;;;;;;15.07;2.92;;;;;;;16.29;72.34;100921.16;5002062;28;20484;-82
2022/08/25 09:33:35;;;;;;;17.30;2.78;;;;;;;16.35;72.14;100919.63;5008836;28;20037;-83
2022/08/25 09:36:02;;;;;;;13.98;1.95;;;;;;;16.35;71.94;100917.78;5008259;28;20045;-83
2022/08/25 09:38:29;;;;;;;15.05;1.98;;;;;;;16.36;71.67;100913.28;4967869;28;20496;-84
2022/08/25 09:40:59;;;;;;;16.27;2.58;;;;;;;16.49;71.60;100915.41;4957739;28;20456;-83
2022/08/25 09:43:29;;;;;;;16.10;2.50;;;;;;;16.53;71.35;100916.72;5005400;28;20510;-81
2022/08/25 09:45:57;;;;;;;12.20;2.25;;;;;;;16.53;71.08;100918.56;4993074;28;20046;-79
2022/08/25 09:48:36;;;;;;;13.30;2.25;;;;;;;16.46;70.64;100923.75;4957780;28;20396;-79
2022/08/25 09:51:30;;;;;;;13.25;2.22;;;;;;;16.45;70.31;100924.75;4967667;28;20053;-81
2022/08/25 09:54:13;;;;;;;15.50;2.05;;;;;;;16.47;70.11;100922.75;4983291;28;20080;-84
2022/08/25 09:56:54;;;;;;;11.68;2.33;;;;;;;16.47;69.59;100910.25;4985990;28;20046;-80
2022/08/25 09:59:33;;;;;;;12.35;2.08;;;;;;;16.49;69.36;100920.75;4999332;28;20547;-80
2022/08/25 10:02:11;;;;;;;16.20;2.40;;;;;;;16.51;69.50;100909.91;5001591;28;20049;-82
2022/08/25 10:04:38;;;;;;;10.77;2.22;;;;;;;16.63;69.34;100910.38;4990452;28;20026;-82
2022/08/25 10:07:28;;;;;;;11.93;2.00;;;;;;;16.69;68.84;100901.66;4978364;28;20366;-82
2022/08/25 10:09:56;;;;;;;12.07;1.77;;;;;;;16.67;68.79;100917.84;4986812;28;20400;-83
2022/08/25 10:12:32;;;;;;;16.50;2.10;;;;;;;16.71;68.91;100916.50;4989749;28;20132;-81
2022/08/25 10:14:58;;;;;;;13.48;2.22;;;;;;;16.72;68.96;100920.81;5021252;28;20065;-82
2022/08/25 10:17:31;;;;;;;9.35;1.90;;;;;;;16.68;68.66;100911.50;4916200;28;20065;-80
2022/08/25 10:20:09;;;;;;;10.48;2.17;;;;;;;16.73;68.31;100913.66;5010181;28;20045;-83
2022/08/25 10:22:39;;;;;;;13.10;2.33;;;;;;;16.84;67.96;100917.75;4972724;28;20147;-80
2022/08/25 10:25:11;;;;;;;8.52;1.80;;;;;;;16.94;67.36;100913.06;4985428;28;20036;-80
2022/08/25 10:27:43;;;;;;;10.45;1.80;;;;;;;17.04;66.83;100910.13;4995185;28;20045;-81
2022/08/25 10:30:49;;;;;;;10.60;1.75;;;;;;;17.04;66.16;100904.78;4992393;28;20133;-80
2022/08/25 10:33:26;;;;;;;11.70;1.77;;;;;;;17.15;66.10;100908.97;5009736;28;20033;-81
2022/08/25 10:35:52;;;;;;;13.82;1.67;;;;;;;17.27;65.73;100903.19;4984086;28;20467;-81
2022/08/25 10:38:41;;;;;;;11.10;2.45;;;;;;;17.33;65.05;100902.47;4990310;28;20029;-80
2022/08/25 10:41:37;;;;;;;11.15;1.80;;;;;;;17.41;64.88;100898.91;5007771;28;20060;-81
2022/08/25 10:47:18;;;;;;;13.43;1.33;;;;;;;17.42;64.55;100897.91;4914126;28;20119;-81
2022/08/25 10:49:53;;;;;;;6.82;1.10;;;;;;;17.38;63.74;100901.94;5020506;28;20416;-80
2022/08/25 10:52:29;;;;;;;10.35;1.23;;;;;;;17.33;63.94;100900.66;4976811;28;20037;-81
2022/08/25 10:54:55;;;;;;;;;;;;;;;17.14;63.88;100906.47;4995193;28;20037;-82
2022/08/25 10:57:51;;;;;;;9.00;1.52;;;;;;;17.15;63.78;100886.75;5012892;28;19913;-80
2022/08/25 11:00:21;;;;;;;9.10;1.80;;;;;;;17.22;64.05;100893.03;4996963;28;20049;-80
2022/08/25 11:03:23;;;;;;;11.73;2.13;;;;;;;17.23;63.31;100900.06;5008508;28;20022;-79
2022/08/25 11:05:58;;;;;;;9.68;1.52;;;;;;;17.22;63.00;100895.72;4990293;28;20852;-80
2022/08/25 11:08:27;;;;;;;9.63;1.40;;;;;;;17.27;62.70;100896.00;4990259;28;20046;-79
2022/08/25 11:11:00;;;;;;;10.02;1.77;;;;;;;17.41;62.19;100896.25;4988655;28;20049;-84
2022/08/25 11:13:46;;;;;;;9.85;1.83;;;;;;;17.55;61.77;100890.13;4982752;28;20042;-81
2022/08/25 11:16:24;;;;;;;7.53;1.40;;;;;;;17.70;61.24;100886.66;4990650;28;20128;-79
2022/08/25 11:19:01;;;;;;;10.75;1.92;;;;;;;17.89;60.94;100884.47;4965419;28;20125;-79
2022/08/25 11:21:48;;;;;;;9.13;2.20;;;;;;;18.01;60.30;100874.19;4995484;28;20029;-78
2022/08/25 11:24:41;;;;;;;11.98;1.60;;;;;;;18.12;59.67;100876.44;4986331;28;20386;-82
2022/08/25 11:27:15;;;;;;;9.35;1.70;;;;;;;18.33;59.30;100864.97;5011597;28;20029;-79
2022/08/25 11:30:02;;;;;;;8.20;1.65;;;;;;;18.57;58.28;100865.69;4987040;28;20095;-80
2022/08/25 11:32:32;;;;;;;8.90;1.23;;;;;;;18.75;57.74;100861.78;5000131;28;20065;-80
2022/08/25 11:35:04;;;;;;;9.93;1.63;;;;;;;18.81;57.12;100862.84;5004624;28;20034;-79
2022/08/25 11:37:32;;;;;;;7.50;1.15;;;;;;;18.91;57.03;100844.66;5003562;28;20121;-81
2022/08/25 11:40:16;;;;;;;10.88;1.90;;;;;;;19.13;56.37;100846.53;4960807;28;20030;-81